Time;durP1;ratioP1;P1;durP2;ratioP2;P2;SDS_P1;SDS_P2;PMS_P1;PMS_P2;Temp;Humidity;BMP_temperature;BMP_pressure;BME280_temperature;BME280_humidity;BME280_pressure;Samples;Min_cycle;Max_cycle;Signal;HPM_P1;HPM_P2
2022/12/27 00:00:20;;;;;;;;;;;;;;;1.16;87.03;96092.31;5115847;27;975;-48
2022/12/27 00:02:47;;;;;;;;;;;;;;;1.31;86.98;96087.13;5115722;28;1553;-48
2022/12/27 00:05:14;;;;;;;;;;;;;;;1.19;86.33;96085.16;5114435;28;1005;-48
2022/12/27 00:07:41;;;;;;;;;;;;;;;1.07;86.15;96089.31;5115573;27;1858;-48
2022/12/27 00:10:08;;;;;;;;;;;;;;;0.96;86.94;96074.91;5115483;28;1039;-48
2022/12/27 00:12:34;;;;;;;;;;;;;;;0.87;87.14;96077.16;5115283;28;1984;-47
2022/12/27 00:15:00;;;;;;;;;;;;;;;0.84;87.89;96074.72;5115337;28;1052;-48
2022/12/27 00:17:26;;;;;;;;;;;;;;;1.04;87.30;96084.19;5115453;27;1028;-48
2022/12/27 00:19:52;;;;;;;;;;;;;;;0.90;87.23;96069.13;5115383;27;987;-48
2022/12/27 00:22:18;;;;;;;;;;;;;;;0.94;87.31;96074.13;5115118;28;1085;-48
2022/12/27 00:24:44;;;;;;;;;;;;;;;0.94;87.32;96076.75;5115496;28;1059;-47
2022/12/27 00:27:10;;;;;;;;;;;;;;;0.98;87.79;96080.94;5115291;28;957;-48
2022/12/27 00:29:36;;;;;;;;;;;;;;;1.01;86.96;96076.47;5115343;27;1032;-48
2022/12/27 00:32:03;;;;;;;;;;;;;;;1.09;86.62;96074.28;5115089;28;1996;-47
2022/12/27 00:34:29;;;;;;;;;;;;;;;1.07;87.29;96068.22;5115025;27;958;-47
2022/12/27 00:36:55;;;;;;;;;;;;;;;1.13;86.87;96065.28;5114901;28;1091;-47
2022/12/27 00:39:21;;;;;;;;;;;;;;;1.00;86.54;96072.13;5114830;28;979;-47
2022/12/27 00:41:47;;;;;;;;;;;;;;;0.79;88.06;96067.03;5115071;28;995;-48
2022/12/27 00:44:13;;;;;;;;;;;;;;;0.88;87.59;96071.81;5114942;28;976;-48
2022/12/27 00:46:39;;;;;;;;;;;;;;;0.90;86.58;96074.38;5114918;28;1023;-48
2022/12/27 00:49:05;;;;;;;;;;;;;;;0.57;84.74;96073.41;5114557;28;1523;-47
2022/12/27 00:51:31;;;;;;;;;;;;;;;0.46;85.81;96069.59;5114603;28;1915;-48
2022/12/27 00:53:57;;;;;;;;;;;;;;;0.39;88.22;96071.69;5114498;28;1040;-48
2022/12/27 00:56:24;;;;;;;;;;;;;;;0.65;87.50;96075.63;5114523;28;1063;-47
2022/12/27 00:58:53;;;;;;;;;;;;;;;0.76;87.98;96078.56;5114640;28;1028;-48
2022/12/27 01:01:21;;;;;;;;;;;;;;;0.74;87.02;96069.03;5114362;28;1028;-47
2022/12/27 01:03:47;;;;;;;;;;;;;;;0.69;86.82;96068.44;5114000;28;1038;-48
2022/12/27 01:06:14;;;;;;;;;;;;;;;0.69;86.66;96063.19;5114292;28;968;-47
2022/12/27 01:08:41;;;;;;;;;;;;;;;0.69;87.35;96060.53;5114257;28;1063;-47
2022/12/27 01:11:08;;;;;;;;;;;;;;;0.76;86.79;96062.78;5114169;28;2060;-48
2022/12/27 01:13:34;;;;;;;;;;;;;;;0.80;86.12;96062.59;5114286;28;1748;-48
2022/12/27 01:16:00;;;;;;;;;;;;;;;0.80;86.53;96068.75;5114128;28;1071;-47
2022/12/27 01:18:26;;;;;;;;;;;;;;;0.63;86.02;96052.97;5114212;28;1091;-48
2022/12/27 01:20:52;;;;;;;;;;;;;;;0.74;86.13;96075.19;5114121;28;1078;-47
2022/12/27 01:23:18;;;;;;;;;;;;;;;0.64;85.73;96066.03;5114263;28;1035;-48
2022/12/27 01:25:44;;;;;;;;;;;;;;;0.64;85.99;96073.06;5114064;28;1860;-47
2022/12/27 01:28:10;;;;;;;;;;;;;;;0.72;86.01;96071.78;5114129;28;969;-47
2022/12/27 01:30:36;;;;;;;;;;;;;;;0.68;86.41;96061.47;5113958;28;1933;-47
2022/12/27 01:33:02;;;;;;;;;;;;;;;0.52;86.56;96066.66;5114015;28;956;-48
2022/12/27 01:35:29;;;;;;;;;;;;;;;0.51;87.04;96054.41;5113939;28;960;-47
2022/12/27 01:37:55;;;;;;;;;;;;;;;0.60;87.50;96058.38;5114125;28;1039;-48
2022/12/27 01:40:21;;;;;;;;;;;;;;;0.76;86.56;96060.16;5114042;28;1002;-48
2022/12/27 01:42:53;;;;;;;;;;;;;;;0.81;86.66;96056.41;5114078;28;1107;-48
2022/12/27 01:45:23;;;;;;;;;;;;;;;0.61;85.75;96063.56;5112677;28;995;-48
2022/12/27 01:48:08;;;;;;;;;;;;;;;0.58;86.60;96059.28;5113806;28;1582;-48
2022/12/27 01:50:34;;;;;;;;;;;;;;;0.75;86.04;96061.06;5113996;28;1913;-47
2022/12/27 01:53:19;;;;;;;;;;;;;;;0.72;86.31;96055.97;5113609;28;1040;-47
2022/12/27 01:55:45;;;;;;;;;;;;;;;0.57;85.87;96062.88;5113680;28;1036;-48
2022/12/27 01:58:31;;;;;;;;;;;;;;;0.30;85.89;96064.25;5113700;28;961;-48
2022/12/27 02:00:57;;;;;;;;;;;;;;;0.29;87.37;96060.78;5112513;28;1108;-48
2022/12/27 02:03:34;;;;;;;;;;;;;;;0.45;87.10;96063.47;5113844;28;965;-48
2022/12/27 02:06:01;;;;;;;;;;;;;;;0.44;87.01;96061.78;5113751;28;965;-48
2022/12/27 02:08:27;;;;;;;;;;;;;;;0.39;87.33;96059.38;5113645;28;1103;-48
2022/12/27 02:10:54;;;;;;;;;;;;;;;0.46;86.99;96061.72;5113301;28;1910;-48
2022/12/27 02:13:20;;;;;;;;;;;;;;;0.47;86.58;96058.97;5113435;28;920;-48
2022/12/27 02:15:46;;;;;;;;;;;;;;;0.43;86.40;96061.88;5115587;28;1127;-48
2022/12/27 02:18:12;;;;;;;;;;;;;;;0.45;87.11;96066.09;5117584;28;1265;-47
2022/12/27 02:20:57;;;;;;;;;;;;;;;0.47;87.17;96056.34;5116624;28;1043;-48
2022/12/27 02:24:01;;;;;;;;;;;;;;;0.58;87.66;96051.41;5117611;28;1020;-48
2022/12/27 02:26:46;;;;;;;;;;;;;;;0.53;85.95;96053.44;5117721;28;1014;-47
2022/12/27 02:29:21;;;;;;;;;;;;;;;0.20;85.91;96053.34;5117575;28;1023;-48
2022/12/27 02:32:02;;;;;;;;;;;;;;;0.13;86.25;96050.16;5117368;28;1911;-48
2022/12/27 02:34:32;;;;;;;;;;;;;;;0.13;88.07;96042.28;5117618;27;967;-47
2022/12/27 02:37:01;;;;;;;;;;;;;;;0.26;88.59;96042.50;5117476;27;1027;-47
2022/12/27 02:39:29;;;;;;;;;;;;;;;0.22;87.44;96045.38;5117455;28;967;-48
2022/12/27 02:53:02;;;;;;;;;;;;;;;0.43;86.67;96056.59;5117128;28;956;-48
2022/12/27 02:53:49;;;;;;;;;;;;;;;0.39;85.53;96058.53;5096050;28;1154;-48
2022/12/27 02:59:09;;;;;;;;;;;;;;;-0.21;87.26;96059.69;5116807;28;1011;-48
2022/12/27 03:05:15;;;;;;;;;;;;;;;0.26;88.38;96057.44;5079031;28;1293;-48
2022/12/27 03:08:01;;;;;;;;;;;;;;;0.39;87.10;96063.78;5113757;28;1422;-48
2022/12/27 03:16:10;;;;;;;;;;;;;;;0.31;86.26;96050.19;5116518;28;932;-47
2022/12/27 03:18:36;;;;;;;;;;;;;;;0.30;86.13;96044.03;5116774;28;957;-47
2022/12/27 03:26:36;;;;;;;;;;;;;;;-0.01;85.75;96039.47;5115888;28;1007;-47
2022/12/27 03:34:38;;;;;;;;;;;;;;;-0.01;88.49;96034.22;5116180;28;1026;-47
2022/12/27 03:39:55;;;;;;;;;;;;;;;-0.09;86.88;96046.88;5116320;27;939;-47
2022/12/27 03:45:10;;;;;;;;;;;;;;;-0.21;86.76;96050.94;5116049;28;1022;-47
2022/12/27 03:47:42;;;;;;;;;;;;;;;-0.24;87.52;96062.44;5115815;28;1493;-48
2022/12/27 03:50:18;;;;;;;;;;;;;;;-0.18;87.25;96068.34;5115979;28;972;-48
2022/12/27 03:52:48;;;;;;;;;;;;;;;-0.20;86.29;96053.50;5115739;28;1968;-48
2022/12/27 03:55:15;;;;;;;;;;;;;;;-0.34;86.91;96062.94;5115857;27;948;-48
2022/12/27 03:57:41;;;;;;;;;;;;;;;-0.36;85.54;96067.44;5114848;28;1635;-47
2022/12/27 04:00:07;;;;;;;;;;;;;;;-0.44;86.35;96060.78;5115620;28;1019;-48
2022/12/27 04:02:34;;;;;;;;;;;;;;;-0.49;86.88;96061.91;5115868;28;964;-48
2022/12/27 04:05:00;;;;;;;;;;;;;;;-0.36;86.79;96063.06;5115755;28;1023;-48
2022/12/27 04:07:26;;;;;;;;;;;;;;;-0.31;86.83;96057.56;5115780;28;1246;-47
2022/12/27 04:34:43;;;;;;;;;;;;;;;-0.37;85.75;96063.13;5115218;28;968;-48
2022/12/27 04:37:17;;;;;;;;;;;;;;;-0.34;85.59;96062.94;5114601;28;1032;-48
2022/12/27 04:56:13;;;;;;;;;;;;;;;-0.33;85.47;96064.66;5114771;28;1171;-48
2022/12/27 05:02:01;;;;;;;;;;;;;;;-0.69;82.76;96068.94;5114703;28;1000;-48
2022/12/27 05:04:10;;;;;;;;;;;;;;;-0.95;85.43;96079.75;5114736;28;1017;-47
2022/12/27 05:06:36;;;;;;;;;;;;;;;-1.01;86.13;96080.88;5113320;28;972;-48
2022/12/27 05:14:31;;;;;;;;;;;;;;;-1.03;87.06;96090.59;5114450;28;1003;-48
2022/12/27 05:16:57;;;;;;;;;;;;;;;-1.00;87.06;96099.19;5114452;28;971;-47
2022/12/27 05:19:23;;;;;;;;;;;;;;;-1.05;87.98;96093.28;5114116;28;1080;-48
2022/12/27 05:27:19;;;;;;;;;;;;;;;-0.91;90.56;96094.44;5114039;28;1117;-48
2022/12/27 05:29:45;;;;;;;;;;;;;;;-0.88;90.67;96086.44;5114125;28;996;-47
2022/12/27 05:32:11;;;;;;;;;;;;;;;-0.95;89.02;96098.97;5114304;28;1906;-48
2022/12/27 05:34:37;;;;;;;;;;;;;;;-1.10;88.56;96094.41;5114208;28;995;-47
2022/12/27 05:37:03;;;;;;;;;;;;;;;-1.05;89.03;96089.81;5112840;28;1212;-48
2022/12/27 05:39:29;;;;;;;;;;;;;;;-0.90;87.68;96085.66;5114079;28;1040;-47
2022/12/27 05:41:55;;;;;;;;;;;;;;;-0.96;87.22;96088.56;5114078;28;968;-47
2022/12/27 05:44:21;;;;;;;;;;;;;;;-0.87;87.51;96099.50;5113842;28;1099;-47
2022/12/27 05:46:48;;;;;;;;;;;;;;;-0.79;86.98;96094.75;5114143;28;948;-47
2022/12/27 05:49:14;;;;;;;;;;;;;;;-0.68;86.11;96099.53;5113898;28;1630;-48
2022/12/27 05:51:40;;;;;;;;;;;;;;;-0.62;86.14;96096.63;5113931;28;1914;-48
2022/12/27 05:54:06;;;;;;;;;;;;;;;-0.74;84.83;96097.19;5113983;28;1039;-47
2022/12/27 05:56:36;;;;;;;;;;;;;;;-0.90;84.43;96101.41;5113727;28;1099;-47
2022/12/27 05:59:02;;;;;;;;;;;;;;;-0.89;84.81;96098.72;5113829;28;1046;-46
2022/12/27 06:01:29;;;;;;;;;;;;;;;-0.86;84.49;96097.72;5113720;28;1031;-47
2022/12/27 06:03:55;;;;;;;;;;;;;;;-0.85;84.73;96104.69;5113840;28;1067;-48
2022/12/27 06:06:21;;;;;;;;;;;;;;;-0.95;84.24;96109.47;5113664;28;1023;-48
2022/12/27 06:08:47;;;;;;;;;;;;;;;-1.04;82.82;96108.13;5113846;28;1024;-48
2022/12/27 06:11:14;;;;;;;;;;;;;;;-1.18;82.98;96107.88;5113519;28;1996;-48
2022/12/27 06:13:42;;;;;;;;;;;;;;;-1.27;84.13;96109.13;5113623;28;956;-47
2022/12/27 06:16:10;;;;;;;;;;;;;;;-1.14;84.46;96114.69;5113697;28;1087;-46
2022/12/27 06:18:36;;;;;;;;;;;;;;;-1.00;83.95;96119.34;5113588;28;1020;-47
2022/12/27 06:21:04;;;;;;;;;;;;;;;-0.99;84.27;96114.03;5112429;28;1067;-47
2022/12/27 06:23:30;;;;;;;;;;;;;;;-0.90;84.25;96112.75;5113502;28;1023;-47
2022/12/27 06:25:56;;;;;;;;;;;;;;;-0.84;84.29;96104.59;5113654;28;1015;-46
2022/12/27 06:28:22;;;;;;;;;;;;;;;-0.79;84.22;96107.88;5113454;28;1023;-47
2022/12/27 06:30:49;;;;;;;;;;;;;;;-0.90;82.93;96104.88;5113411;28;1906;-47
2022/12/27 06:33:15;;;;;;;;;;;;;;;-0.92;84.17;96100.63;5113493;28;1091;-46
2022/12/27 06:35:41;;;;;;;;;;;;;;;-0.86;85.58;96105.59;5113522;28;987;-47
2022/12/27 06:38:07;;;;;;;;;;;;;;;-0.22;84.15;96112.31;5113522;28;1027;-47
2022/12/27 06:40:33;;;;;;;;;;;;;;;2.40;74.31;96101.38;5113269;28;1099;-46
2022/12/27 06:42:59;;;;;;;;;;;;;;;4.66;62.78;96113.91;5113253;28;969;-47
2022/12/27 06:45:25;;;;;;;;;;;;;;;5.89;56.51;96112.63;5112332;28;979;-48
2022/12/27 06:47:51;;;;;;;;;;;;;;;6.70;53.46;96114.75;5113035;28;1219;-48
2022/12/27 06:50:17;;;;;;;;;;;;;;;6.76;52.21;96124.91;5113326;28;1019;-48
2022/12/27 06:52:43;;;;;;;;;;;;;;;7.12;51.53;96131.09;5112235;28;1910;-48
2022/12/27 06:55:09;;;;;;;;;;;;;;;5.51;55.14;96119.66;5113263;28;953;-47
2022/12/27 06:57:35;;;;;;;;;;;;;;;5.49;56.50;96118.94;5113071;28;956;-47
2022/12/27 07:00:02;;;;;;;;;;;;;;;6.64;53.41;96118.72;5113462;28;963;-48
2022/12/27 07:02:28;;;;;;;;;;;;;;;7.48;51.44;96115.13;5116264;28;996;-48
2022/12/27 07:04:54;;;;;;;;;;;;;;;8.76;48.57;96122.69;5117022;28;1015;-47
2022/12/27 07:07:20;;;;;;;;;;;;;;;9.38;46.90;96125.56;5116699;28;1857;-48
2022/12/27 07:09:46;;;;;;;;;;;;;;;9.37;45.84;96129.19;5116790;28;1024;-48
2022/12/27 07:12:12;;;;;;;;;;;;;;;9.66;45.57;96131.22;5116304;28;1979;-48
2022/12/27 07:14:38;;;;;;;;;;;;;;;9.51;45.46;96134.22;5116862;28;1044;-47
2022/12/27 07:17:04;;;;;;;;;;;;;;;9.11;46.44;96136.75;5116960;28;1029;-48
2022/12/27 07:19:30;;;;;;;;;;;;;;;8.99;46.33;96133.25;5116480;28;1079;-47
2022/12/27 07:21:57;;;;;;;;;;;;;;;9.41;46.49;96133.31;5116567;28;1845;-48
2022/12/27 07:24:23;;;;;;;;;;;;;;;9.37;46.06;96132.72;5116485;28;817;-48
2022/12/27 07:26:49;;;;;;;;;;;;;;;9.97;44.73;96129.41;5116524;28;1055;-48
2022/12/27 07:29:15;;;;;;;;;;;;;;;8.95;47.09;96129.13;5114890;27;1460;-49
2022/12/27 07:31:41;;;;;;;;;;;;;;;7.73;51.08;96104.25;5115197;28;1985;-48
2022/12/27 07:34:08;;;;;;;;;;;;;;;6.17;56.25;96093.81;5116524;28;1205;-48
2022/12/27 07:36:36;;;;;;;;;;;;;;;4.84;62.36;96095.97;5116217;28;952;-48
2022/12/27 07:39:02;;;;;;;;;;;;;;;3.87;66.53;96099.56;5116380;27;904;-47
2022/12/27 07:41:28;;;;;;;;;;;;;;;2.90;71.03;96106.38;5115787;27;1190;-47
2022/12/27 07:43:54;;;;;;;;;;;;;;;2.68;73.14;96109.41;5116207;28;1036;-48
2022/12/27 07:46:21;;;;;;;;;;;;;;;2.28;74.33;96116.13;5115960;28;1107;-47
2022/12/27 07:48:48;;;;;;;;;;;;;;;2.03;76.44;96114.00;5115985;28;1524;-46
2022/12/27 07:51:15;;;;;;;;;;;;;;;1.99;77.57;96099.28;5115702;28;1906;-47
2022/12/27 07:53:41;;;;;;;;;;;;;;;2.02;77.87;96096.50;5114736;28;972;-47
2022/12/27 07:56:17;;;;;;;;;;;;;;;1.95;79.00;96095.97;5115858;28;995;-47
2022/12/27 07:58:44;;;;;;;;;;;;;;;2.11;78.50;96095.97;5116125;28;1027;-46
2022/12/27 08:01:11;;;;;;;;;;;;;;;2.05;78.82;96101.56;5115770;28;1211;-47
2022/12/27 08:03:38;;;;;;;;;;;;;;;1.88;80.61;96102.53;5115811;28;1064;-47
2022/12/27 08:06:05;;;;;;;;;;;;;;;1.88;80.72;96100.75;5115736;28;1015;-47
2022/12/27 08:08:34;;;;;;;;;;;;;;;2.02;79.95;96099.13;5115615;28;1007;-47
2022/12/27 08:11:01;;;;;;;;;;;;;;;1.90;80.83;96090.13;5115390;28;1906;-48
2022/12/27 08:13:27;;;;;;;;;;;;;;;1.93;81.08;96092.56;5115568;28;1971;-47
2022/12/27 08:15:53;;;;;;;;;;;;;;;1.90;81.38;96088.31;5115771;27;1043;-47
2022/12/27 08:18:20;;;;;;;;;;;;;;;1.94;81.64;96096.91;5115375;28;1036;-47
2022/12/27 08:20:46;;;;;;;;;;;;;;;1.88;82.58;96089.34;5115535;28;1034;-47
2022/12/27 08:23:12;;;;;;;;;;;;;;;2.15;80.59;96100.13;5115166;28;984;-47
2022/12/27 08:25:38;;;;;;;;;;;;;;;2.43;79.48;96115.25;5115211;28;1016;-47
2022/12/27 08:28:04;;;;;;;;;;;;;;;2.52;78.77;96109.47;5114356;28;988;-47
2022/12/27 08:30:30;;;;;;;;;;;;;;;2.67;78.31;96114.78;5115333;28;963;-47
2022/12/27 08:32:57;;;;;;;;;;;;;;;2.64;78.32;96107.88;5114976;28;1913;-48
2022/12/27 08:35:23;;;;;;;;;;;;;;;2.81;78.34;96103.38;5115065;28;1048;-48
2022/12/27 08:37:49;;;;;;;;;;;;;;;2.85;78.31;96099.66;5115160;28;1004;-47
2022/12/27 08:40:15;;;;;;;;;;;;;;;2.95;78.70;96092.88;5115048;28;1865;-48
2022/12/27 08:42:41;;;;;;;;;;;;;;;3.00;79.26;96101.38;5114707;28;1126;-48
2022/12/27 08:45:07;;;;;;;;;;;;;;;3.00;80.30;96092.59;5115011;28;1031;-47
2022/12/27 08:47:33;;;;;;;;;;;;;;;3.12;79.90;96090.06;5113706;28;1591;-48
2022/12/27 08:49:59;;;;;;;;;;;;;;;3.41;80.44;96082.13;5114881;28;1071;-48
2022/12/27 08:52:25;;;;;;;;;;;;;;;3.70;79.37;96076.88;5114383;28;1906;-48
2022/12/27 08:54:51;;;;;;;;;;;;;;;3.92;79.10;96074.53;5113565;28;1115;-48
2022/12/27 08:57:17;;;;;;;;;;;;;;;4.03;79.85;96070.38;5114763;28;1059;-48
2022/12/27 08:59:43;;;;;;;;;;;;;;;4.04;79.12;96085.28;5114904;28;1027;-48
2022/12/27 09:02:13;;;;;;;;;;;;;;;3.97;78.20;96068.97;5114497;28;1019;-48
2022/12/27 09:04:39;;;;;;;;;;;;;;;4.21;77.02;96055.94;5114573;28;1082;-48
2022/12/27 09:07:05;;;;;;;;;;;;;;;4.44;76.23;96059.72;5113406;28;957;-48
2022/12/27 09:09:31;;;;;;;;;;;;;;;4.48;75.75;96061.22;5114501;28;1957;-48
2022/12/27 09:11:57;;;;;;;;;;;;;;;4.40;76.37;96065.31;5114195;28;1995;-48
2022/12/27 09:14:23;;;;;;;;;;;;;;;4.37;77.04;96061.06;5114542;28;1050;-48
2022/12/27 09:16:49;;;;;;;;;;;;;;;4.30;77.76;96052.66;5113423;28;965;-48
2022/12/27 09:19:15;;;;;;;;;;;;;;;4.55;76.84;96068.75;5114493;28;1015;-48
2022/12/27 09:21:42;;;;;;;;;;;;;;;4.96;74.98;96065.97;5113948;28;1272;-48
2022/12/27 09:24:10;;;;;;;;;;;;;;;5.35;72.58;96061.53;5114105;28;1059;-48
2022/12/27 09:26:36;;;;;;;;;;;;;;;5.50;71.74;96064.91;5114448;28;961;-48
2022/12/27 09:29:02;;;;;;;;;;;;;;;5.75;70.38;96045.47;5114405;28;1031;-47
2022/12/27 09:31:29;;;;;;;;;;;;;;;5.76;70.41;96041.84;5113718;28;1992;-48
2022/12/27 09:33:55;;;;;;;;;;;;;;;5.89;70.07;96041.81;5114291;27;1040;-48
2022/12/27 09:36:23;;;;;;;;;;;;;;;5.83;70.19;96035.13;5114070;28;1031;-48
2022/12/27 09:38:51;;;;;;;;;;;;;;;6.00;68.19;96033.97;5114307;28;1054;-48
2022/12/27 09:41:23;;;;;;;;;;;;;;;6.28;67.50;96026.63;5113857;28;1837;-47
2022/12/27 09:43:55;;;;;;;;;;;;;;;6.35;69.09;96017.22;5114168;28;980;-48
2022/12/27 09:46:25;;;;;;;;;;;;;;;6.64;68.46;96024.84;5114055;28;1082;-48
2022/12/27 09:48:53;;;;;;;;;;;;;;;6.91;68.32;96021.06;5113962;28;1204;-47
2022/12/27 09:51:23;;;;;;;;;;;;;;;7.09;67.55;96018.78;5113567;28;1909;-47
2022/12/27 09:53:56;;;;;;;;;;;;;;;7.20;67.94;96016.97;5113957;28;1032;-48
2022/12/27 09:56:24;;;;;;;;;;;;;;;7.51;67.28;96006.63;5114001;28;971;-48
2022/12/27 09:59:02;;;;;;;;;;;;;;;7.87;66.35;96009.94;5114004;28;1036;-48
2022/12/27 10:01:33;;;;;;;;;;;;;;;8.13;65.23;96004.34;5113526;28;1064;-48
2022/12/27 10:03:59;;;;;;;;;;;;;;;7.98;65.23;95996.63;5113892;28;1036;-47
2022/12/27 10:06:28;;;;;;;;;;;;;;;8.28;65.78;96007.56;5113999;28;948;-47
2022/12/27 10:09:09;;;;;;;;;;;;;;;8.52;64.58;95996.75;5113991;28;1046;-48
2022/12/27 10:12:18;;;;;;;;;;;;;;;8.99;63.08;95991.88;5104190;28;1986;-48
2022/12/27 10:15:03;;;;;;;;;;;;;;;9.42;61.54;95979.34;5109852;28;1137;-47
2022/12/27 10:17:32;;;;;;;;;;;;;;;9.34;62.25;95998.69;5113539;28;1313;-48
2022/12/27 10:20:16;;;;;;;;;;;;;;;9.42;62.51;95992.69;5113724;28;1120;-48
2022/12/27 10:23:03;;;;;;;;;;;;;;;9.49;62.23;95989.34;5113774;28;1007;-47
2022/12/27 10:25:29;;;;;;;;;;;;;;;9.63;61.88;95987.28;5113329;28;1107;-48
2022/12/27 10:28:30;;;;;;;;;;;;;;;9.87;61.07;95987.78;5112390;28;1119;-48
2022/12/27 10:31:25;;;;;;;;;;;;;;;9.76;60.98;95988.72;5073484;28;1987;-48
2022/12/27 10:34:08;;;;;;;;;;;;;;;9.99;60.48;95977.00;5066928;28;1502;-48
2022/12/27 10:36:34;;;;;;;;;;;;;;;10.09;60.32;95965.34;5072001;28;1601;-47
2022/12/27 10:39:01;;;;;;;;;;;;;;;10.42;59.38;95970.47;5074627;28;1058;-48
2022/12/27 10:41:49;;;;;;;;;;;;;;;10.61;58.11;95972.31;5074415;28;1175;-48
2022/12/27 10:44:15;;;;;;;;;;;;;;;10.65;58.59;95960.34;5073739;28;1326;-48
2022/12/27 10:46:43;;;;;;;;;;;;;;;10.66;58.78;95952.19;5074050;28;1322;-48
2022/12/27 10:49:21;;;;;;;;;;;;;;;10.62;58.76;95947.25;5074285;28;1174;-48
2022/12/27 10:51:48;;;;;;;;;;;;;;;10.69;58.91;95951.88;5074247;28;2005;-48
2022/12/27 10:54:17;;;;;;;;;;;;;;;10.73;58.83;95947.94;5074270;28;1017;-48
2022/12/27 10:56:43;;;;;;;;;;;;;;;11.16;57.16;95932.38;5073939;28;1217;-48
2022/12/27 10:59:15;;;;;;;;;;;;;;;11.30;56.94;95931.88;5074112;28;1172;-47
2022/12/27 11:01:45;;;;;;;;;;;;;;;11.34;56.97;95921.72;5083625;28;1048;-48
2022/12/27 11:04:19;;;;;;;;;;;;;;;11.42;57.05;95919.16;5094340;28;1004;-48
2022/12/27 11:06:46;;;;;;;;;;;;;;;11.64;56.59;95914.41;5077149;28;1245;-48
2022/12/27 11:09:31;;;;;;;;;;;;;;;11.72;56.35;95911.81;5094205;28;1028;-48
2022/12/27 11:12:15;;;;;;;;;;;;;;;11.76;55.08;95913.22;5093884;28;1910;-48
2022/12/27 11:14:56;;;;;;;;;;;;;;;11.97;55.46;95914.81;5093798;28;1262;-48
2022/12/27 11:17:24;;;;;;;;;;;;;;;11.84;56.34;95913.31;5073779;28;1008;-48
2022/12/27 11:19:50;;;;;;;;;;;;;;;11.36;58.57;95906.34;5073813;28;1184;-48
2022/12/27 11:22:17;;;;;;;;;;;;;;;11.05;60.21;95913.81;5057090;28;958;-48
2022/12/27 11:24:45;;;;;;;;;;;;;;;10.97;60.86;95894.97;5090938;28;1563;-48
2022/12/27 11:27:25;;;;;;;;;;;;;;;11.23;60.00;95897.81;5115760;28;1136;-48
2022/12/27 11:29:54;;;;;;;;;;;;;;;11.09;59.52;95893.78;5116407;28;1020;-48
2022/12/27 11:32:22;;;;;;;;;;;;;;;11.21;58.87;95886.41;5116428;28;1997;-48
2022/12/27 11:34:49;;;;;;;;;;;;;;;11.52;59.30;95895.84;5116330;28;1000;-48
2022/12/27 11:37:16;;;;;;;;;;;;;;;11.70;58.88;95893.25;5116143;28;1042;-48
2022/12/27 11:39:44;;;;;;;;;;;;;;;11.78;58.44;95884.44;5116124;28;1000;-46
2022/12/27 11:42:13;;;;;;;;;;;;;;;11.83;58.37;95887.50;5115024;28;1008;-48
2022/12/27 11:44:41;;;;;;;;;;;;;;;11.92;58.45;95888.47;5116091;28;1031;-48
2022/12/27 11:47:10;;;;;;;;;;;;;;;11.79;58.27;95886.13;5115536;28;1099;-48
2022/12/27 11:49:39;;;;;;;;;;;;;;;11.48;58.90;95883.75;5115921;28;1200;-48
2022/12/27 11:52:23;;;;;;;;;;;;;;;11.40;59.62;95880.13;5116015;28;1985;-47
2022/12/27 11:55:07;;;;;;;;;;;;;;;11.08;60.46;95881.41;5116276;28;1024;-47
2022/12/27 11:57:33;;;;;;;;;;;;;;;11.29;60.11;95883.84;5115985;28;952;-48
2022/12/27 12:00:02;;;;;;;;;;;;;;;11.01;60.80;95874.94;5115916;28;968;-48
2022/12/27 12:02:37;;;;;;;;;;;;;;;11.21;60.45;95870.34;5115716;28;1019;-48
2022/12/27 12:05:40;;;;;;;;;;;;;;;11.34;59.24;95876.22;5115462;28;1565;-48
2022/12/27 12:08:14;;;;;;;;;;;;;;;11.31;59.18;95872.00;5052956;28;1173;-48
2022/12/27 12:10:49;;;;;;;;;;;;;;;11.31;59.34;95873.84;5107379;28;2004;-48
2022/12/27 12:13:34;;;;;;;;;;;;;;;11.46;59.36;95874.19;5115446;28;1092;-48
2022/12/27 12:16:03;;;;;;;;;;;;;;;11.67;59.49;95865.91;5115245;28;1070;-48
2022/12/27 12:18:47;;;;;;;;;;;;;;;11.73;58.57;95865.28;5115638;28;1120;-48
2022/12/27 12:21:23;;;;;;;;;;;;;;;11.94;58.16;95866.88;5115390;28;1036;-48
2022/12/27 12:23:58;;;;;;;;;;;;;;;12.04;58.19;95873.00;5115355;28;1952;-48
2022/12/27 12:26:25;;;;;;;;;;;;;;;11.94;59.22;95869.56;5115308;28;1113;-48
2022/12/27 12:28:57;;;;;;;;;;;;;;;11.93;59.39;95870.53;5115310;28;1083;-48
2022/12/27 12:31:32;;;;;;;;;;;;;;;11.86;59.73;95871.13;5115078;28;1992;-48
2022/12/27 12:34:06;;;;;;;;;;;;;;;11.72;60.67;95868.94;5115204;28;1022;-48
2022/12/27 12:36:32;;;;;;;;;;;;;;;11.68;60.63;95875.59;5114923;28;1034;-48
2022/12/27 12:39:08;;;;;;;;;;;;;;;11.50;60.84;95881.78;5114000;28;1044;-48
2022/12/27 12:41:50;;;;;;;;;;;;;;;11.48;61.05;95881.09;5115162;28;1094;-48
2022/12/27 12:44:34;;;;;;;;;;;;;;;11.42;60.78;95879.00;5115065;28;1095;-47
2022/12/27 12:47:01;;;;;;;;;;;;;;;11.41;61.29;95869.28;5114727;28;1408;-48
2022/12/27 12:49:30;;;;;;;;;;;;;;;11.40;62.03;95870.28;5113749;28;1193;-48
2022/12/27 12:52:19;;;;;;;;;;;;;;;11.41;61.33;95866.59;5114982;27;1934;-48
2022/12/27 12:55:05;;;;;;;;;;;;;;;11.41;62.29;95858.56;5114937;28;1921;-48
2022/12/27 12:57:34;;;;;;;;;;;;;;;11.50;60.23;95864.88;5114392;28;2127;-48
2022/12/27 13:00:19;;;;;;;;;;;;;;;11.50;61.37;95876.41;5114204;28;984;-48
2022/12/27 13:02:55;;;;;;;;;;;;;;;11.49;61.95;95866.69;5114658;28;1070;-48
2022/12/27 13:05:39;;;;;;;;;;;;;;;11.47;61.15;95871.34;5114255;28;1137;-48
2022/12/27 13:08:17;;;;;;;;;;;;;;;11.46;61.33;95874.19;5114782;28;996;-48
2022/12/27 13:10:43;;;;;;;;;;;;;;;11.31;60.91;95866.66;5114610;28;1854;-48
2022/12/27 13:13:12;;;;;;;;;;;;;;;11.17;61.42;95879.66;5114239;28;1898;-49
2022/12/27 13:15:57;;;;;;;;;;;;;;;11.09;62.08;95867.84;5114021;28;1411;-48
2022/12/27 13:18:23;;;;;;;;;;;;;;;11.11;61.77;95871.22;5114382;28;1047;-48
2022/12/27 13:20:49;;;;;;;;;;;;;;;11.19;61.62;95877.69;5114280;28;1047;-48
2022/12/27 13:23:29;;;;;;;;;;;;;;;11.31;60.63;95863.97;5114500;28;1024;-48
2022/12/27 13:26:14;;;;;;;;;;;;;;;11.39;60.21;95868.59;5114106;28;972;-48
2022/12/27 13:29:02;;;;;;;;;;;;;;;11.46;60.65;95875.03;5114132;28;1027;-48
2022/12/27 13:31:35;;;;;;;;;;;;;;;11.47;59.52;95868.66;5114126;28;1910;-48
2022/12/27 13:34:21;;;;;;;;;;;;;;;11.46;59.43;95872.34;5114232;28;1024;-48
2022/12/27 13:36:47;;;;;;;;;;;;;;;11.45;60.23;95873.34;5113834;28;1132;-48
2022/12/27 13:39:22;;;;;;;;;;;;;;;11.48;60.94;95873.06;5114430;28;956;-48
2022/12/27 13:41:57;;;;;;;;;;;;;;;11.41;61.66;95873.78;5114256;28;1031;-48
2022/12/27 13:44:35;;;;;;;;;;;;;;;11.35;64.05;95869.88;5114138;28;1059;-48
2022/12/27 13:47:14;;;;;;;;;;;;;;;11.37;61.82;95875.91;5113800;28;1263;-48
2022/12/27 13:49:48;;;;;;;;;;;;;;;11.36;63.75;95882.25;5114034;28;1141;-48
2022/12/27 13:52:20;;;;;;;;;;;;;;;11.35;64.41;95882.44;5114107;28;1910;-47
2022/12/27 13:55:17;;;;;;;;;;;;;;;11.32;65.45;95888.91;5113866;28;1024;-48
2022/12/27 13:57:43;;;;;;;;;;;;;;;11.27;65.35;95884.00;5113491;28;1109;-48
2022/12/27 14:00:16;;;;;;;;;;;;;;;11.25;63.16;95887.78;5113870;28;1012;-48
2022/12/27 14:02:42;;;;;;;;;;;;;;;11.25;63.01;95887.78;5113958;28;957;-48
2022/12/27 14:05:34;;;;;;;;;;;;;;;11.24;63.43;95888.81;5113994;28;994;-48
2022/12/27 14:08:19;;;;;;;;;;;;;;;11.14;63.68;95891.53;5092434;28;2222;-48
2022/12/27 14:10:46;;;;;;;;;;;;;;;10.85;64.00;95887.09;5095662;28;963;-48
2022/12/27 14:13:16;;;;;;;;;;;;;;;10.71;65.15;95895.56;5097397;28;2004;-48
2022/12/27 14:15:51;;;;;;;;;;;;;;;10.61;65.16;95900.09;5099190;28;1120;-48
2022/12/27 14:18:23;;;;;;;;;;;;;;;10.58;65.62;95898.53;5117969;28;964;-48
2022/12/27 14:20:52;;;;;;;;;;;;;;;10.45;66.53;95901.53;5117788;28;1020;-48
2022/12/27 14:23:18;;;;;;;;;;;;;;;10.35;66.60;95896.16;5118033;28;1010;-48
2022/12/27 14:25:44;;;;;;;;;;;;;;;10.27;66.45;95901.34;5117620;28;987;-48
2022/12/27 14:28:17;;;;;;;;;;;;;;;10.16;68.26;95902.31;5117643;28;1027;-48
2022/12/27 14:31:03;;;;;;;;;;;;;;;10.05;69.90;95902.47;5117545;28;1098;-48
2022/12/27 14:33:32;;;;;;;;;;;;;;;9.81;68.00;95918.03;5086036;28;1176;-48
2022/12/27 14:35:58;;;;;;;;;;;;;;;9.57;68.58;95921.91;5117253;28;1107;-48
2022/12/27 14:38:36;;;;;;;;;;;;;;;9.52;69.17;95917.00;5117394;28;1102;-48
2022/12/27 14:41:02;;;;;;;;;;;;;;;9.48;68.83;95914.72;5117388;28;1032;-48
2022/12/27 14:43:46;;;;;;;;;;;;;;;9.37;69.12;95916.53;5117261;28;1087;-48
2022/12/27 14:46:16;;;;;;;;;;;;;;;9.42;68.93;95923.28;5117036;28;1107;-48
2022/12/27 14:48:44;;;;;;;;;;;;;;;9.37;69.48;95916.53;5117353;28;1188;-48
2022/12/27 14:51:29;;;;;;;;;;;;;;;9.24;69.40;95921.25;5116981;28;1911;-48
2022/12/27 14:54:01;;;;;;;;;;;;;;;9.01;70.62;95935.72;5117199;28;1002;-48